Comers Rock, Virginia
Current Conditions -  °F | °C
As of 5:55 PM on Tuesday 27 Jan 2015 (Local Time) from KMKJ Reporting Station
Clear Clear  
Wind Chill: 17°   Ceiling: Unl
Heat Index: 29°   Visibility: 10mi
Dew Point:   Wind: 17mph
Humidity: 40%   Direction: 270°W
Pressure: 29.91"   Gusts: 22mph
Location:  36.73°N, 81.1929°W
Report Text: KMKJ 272255Z AUTO 27015G19KT 10SM CLR M02/M14 A2991 RMK AO2 T10161136
Loading
Personal Weather Stations






























Interactive Weather Map New forecast layout! Learn more

10-Day Weather Forecast

Advertisements
Track Severe Weather on mobile